Station: Mount Crawford

  Atmospheric Gas Attenuation - ITU Rec 676-11   --------------- db/100km ---------------
Date Time Temp RH % AH g/m3 Dew Point Wind Direction Speed kph Gust kph Barometer mB Rainfall Since 9am 24GHz 47GHz 76GHz 122GHz 134GHz 241GHz
13 08:20 7.8 7.9 22 28 1026.2 1.2
13 08:10 7.5 7.6 22 28 1026.1 1.2
13 08:00 7.3 100 7.9 7.3 22 32 1026.6 1.2 18.4 27.2 40.8 106.9 98.2 336.7
13 07:50 6.9 7 24 28 1026.1 1.2
13 07:40 6.7 6.8 20 24 1026 1.2
13 07:30 6.5 100 7.5 6.5 22 28 1026.4 1.2 17.6 26.7 39.5 103.3 93.5 320.2
13 07:20 6.8 6.9 20 24 1025.8 1.2
13 07:10 6.8 6.9 20 24 1025.8 1.2
13 07:00 6.8 100 7.65 6.8 22 28 1026.2 1.2 17.9 26.9 40.0 104.6 95.3 326.3
13 06:50 6.8 6.9 22 24 1025.6 1.2
13 06:40 6.9 7 24 28 1025.5 1.2
13 06:30 6.8 100 7.65 6.8 22 28 1025.9 1.2 17.9 26.9 40.0 104.6 95.2 326.3
13 06:20 6.7 6.8 20 24 1025.3 1.2
13 06:10 6.7 6.8 20 24 1025.3 1.2
13 06:00 6.7 100 7.6 6.7 17 22 1025.7 1.2 17.8 26.8 39.8 104.2 94.6 324.2
13 05:50 6.7 6.8 19 22 1025 1.2
13 05:40 6.8 6.9 15 17 1025 1.2
13 05:30 7 100 7.75 7 17 26 1025.5 1.2 18.1 27.0 40.3 105.4 96.4 330.3
13 05:20 7.2 7.3 19 26 1024.9 1.2
13 05:10 7.2 7.3 22 28 1024.8 1.2
13 04:50 7.3 7.4 17 22 1024.8 1
13 04:40 7.2 7.3 19 20 1024.7 1
13 04:30 7.4 100 7.96 7.4 17 24 1025.2 1 18.5 27.2 41.0 107.3 98.8 338.9
13 04:20 7.4 7.5 15 17 1024.6 1
13 04:10 7.6 7.7 15 17 1024.6 1
13 04:00 7.8 100 8.16 7.8 15 20 1025.3 1 18.9 27.4 41.6 109.0 101.1 347.1
13 03:50 7.7 7.8 13 15 1024.6 1
13 03:40 7.9 8 17 20 1024.6 1
13 03:30 7.9 100 8.22 7.9 13 19 1025.3 1 19.0 27.5 41.8 109.6 101.9 349.6
13 03:20 7.9 8 13 15 1024.7 1
13 03:10 8.1 8.2 11 15 1024.7 1
13 03:00 8 100 8.27 8 13 19 1025.2 1 19.2 27.6 42.0 110.0 102.4 351.7
13 02:50 8 8.1 11 13 1024.5 1
13 02:40 8 8.1 11 13 1024.5 1
13 02:30 8 100 8.27 8 13 17 1025.1 1 19.2 27.6 42.0 110.0 102.4 351.6
13 02:20 8 8.1 9 13 1024.4 1
13 02:10 8.1 8.2 13 17 1024.4 1
13 02:00 8.1 100 8.32 8.1 15 20 1024.8 1 19.3 27.6 42.1 110.4 103.0 353.6
13 01:50 8.2 8.3 15 19 1024.4 1
13 01:40 8.1 8.2 13 17 1024.3 1
13 01:30 8.2 100 8.38 8.2 15 20 1024.8 1 19.4 27.7 42.3 111.0 103.7 356.1
13 01:20 8.3 8.4 17 20 1024.3 1
13 01:10 8.2 8.3 19 24 1024.2 1
13 01:00 8.3 100 8.43 8.3 19 28 1024.7 1 19.5 27.7 42.5 111.4 104.3 358.1
13 00:50 8.1 8.2 17 19 1024.2 1
13 00:40 8.2 8.3 17 19 1024.2 1
13 00:30 8.2 100 8.38 8.2 19 24 1024.7 1 19.4 27.7 42.3 111.0 103.7 356.1
13 00:20 8.3 8.4 19 22 1024.2 1
13 00:10 8.1 8.2 15 19 1024.3 1
13 00:00 8.2 100 8.38 8.2 17 26 1024.8 1 19.4 27.7 42.3 111.0 103.7 356.1
12 23:50 8.2 8.3 13 15 1024.2 1
12 23:40 8.3 8.4 19 24 1024.2 1
12 23:30 8.4 100 8.49 8.4 20 28 1024.6 1 19.6 27.8 42.7 111.9 105.0 360.6
12 23:20 8.5 8.6 19 22 1024.1 1
12 23:10 8.5 8.6 20 28 1024 1
12 23:00 8.4 100 8.49 8.4 19 24 1024.5 1 19.6 27.8 42.7 111.9 105.0 360.6
12 22:50 8.3 8.4 15 19 1024 1
12 22:40 8.3 8.4 22 26 1024 1
12 22:30 8.3 100 8.43 8.3 17 28 1024.4 1 19.5 27.7 42.5 111.4 104.2 358.0
12 22:20 8.3 8.4 17 20 1023.9 1
12 22:10 8.2 8.3 19 22 1023.8 1
12 22:00 8.1 100 8.32 8.1 17 20 1024.3 1 19.3 27.6 42.1 110.4 102.9 353.4
12 21:50 8 8.1 15 15 1023.8 1
12 21:40 8.1 8.2 15 19 1023.9 1
12 21:30 8.1 100 8.32 8.1 15 22 1024.5 1 19.3 27.6 42.1 110.4 103.0 353.5
12 21:20 8 8.1 19 22 1023.9 1
12 21:10 8.1 8.2 17 20 1024 1
12 21:00 8.1 100 8.32 8.1 17 24 1024.4 1 19.3 27.6 42.1 110.4 102.9 353.5
12 20:50 7.9 8 15 19 1023.9 1
12 20:40 7.9 8 17 20 1023.8 1
12 20:30 7.9 100 8.22 7.9 17 24 1024.3 1 19.0 27.5 41.8 109.5 101.8 349.4
12 20:20 8 8.1 13 17 1023.6 1
12 20:10 8.1 8.2 15 19 1023.5 1
12 20:00 8.1 100 8.32 8.1 15 20 1023.9 1 19.3 27.6 42.1 110.3 102.9 353.3
12 19:50 8.2 8.3 9 13 1023.3 1
12 19:40 8.2 8.3 17 19 1023 1
12 19:30 8.1 100 8.32 8.1 13 19 1023.6 1 19.3 27.5 42.1 110.3 102.9 353.2
12 19:20 8 8.1 11 13 1022.9 1
12 19:10 8 8.1 15 19 1022.7 1
12 19:00 7.9 100 8.22 7.9 15 19 1023.1 1 19.0 27.4 41.7 109.4 101.7 349.0
12 18:50 7.7 7.8 15 17 1022.4 1
12 18:40 7.7 7.8 13 17 1022.3 1
12 18:30 7.9 100 8.22 7.9 15 20 1022.8 1 19.0 27.4 41.7 109.3 101.7 348.9
12 18:20 7.7 7.8 11 13 1022.2 1
12 18:10 7.9 8 11 13 1022 1
12 18:00 8 100 8.27 8 11 17 1022.4 1 19.2 27.4 41.8 109.7 102.2 350.9
12 17:50 8.3 8.4 13 17 1021.7 1
12 17:40 8.6 8.7 15 17 1021.6 1
12 17:30 8.7 100 8.65 8.7 13 17 1021.9 1 19.9 27.9 43.1 113.0 106.6 366.4
12 17:20 8.8 8.9 11 13 1021.3 1
12 17:10 8.9 9 11 13 1021.1 1
12 17:00 9.1 100 8.88 9.1 17 22 1021.4 1 20.4 28.1 43.8 115.1 109.3 375.9
12 16:50 9.3 9.4 17 20 1020.8 1
12 16:40 9.3 9.4 13 17 1020.7 1
12 16:30 9.5 100 9.1 9.5 15 20 1021.2 1 20.9 28.4 44.6 117.0 111.9 384.9
12 16:20 9.8 99 9.19 9.7 15 17 1020.6 1 21.1 28.4 44.8 117.5 112.6 387.7
12 16:10 9.7 100 9.22 9.7 19 22 1020.5 1 21.1 28.5 44.9 118.0 113.2 389.7
12 16:00 9.7 100 9.22 9.7 17 32 1021 1 21.1 28.5 45.0 118.1 113.3 389.8
12 15:50 9.8 100 9.28 9.8 15 17 1020.4 1 21.2 28.6 45.1 118.6 113.9 392.2
12 15:40 9.8 100 9.28 9.8 26 30 1020.2 1 21.2 28.5 45.1 118.5 113.9 392.1

Last Refresh: 13-Jul-2020 08:36:37

Most of the information presented on this site is sourced from the Bureau of Meteorology.  Copyright in all material sourced from the Bureau of Meteorology resides with the Commonwealth of Australia.